sensor_id;sensor_type;location;lat;lon;timestamp;pressure;altitude;pressure_sealevel;temperature;humidity
21879;BME280;27908;42.708;23.278;2022-12-18T00:00:46;63301.63;;;6.03;100.00
21879;BME280;27908;42.708;23.278;2022-12-18T00:03:13;63330.34;;;5.97;100.00
21879;BME280;27908;42.708;23.278;2022-12-18T00:05:49;63262.44;;;5.87;100.00
21879;BME280;27908;42.708;23.278;2022-12-18T00:08:22;63232.06;;;5.82;100.00
21879;BME280;27908;42.708;23.278;2022-12-18T00:10:48;63299.25;;;5.81;100.00
21879;BME280;27908;42.708;23.278;2022-12-18T00:13:13;63288.09;;;5.78;100.00
21879;BME280;27908;42.708;23.278;2022-12-18T00:15:39;63288.63;;;5.78;100.00
21879;BME280;27908;42.708;23.278;2022-12-18T00:18:05;63260.28;;;5.78;100.00
21879;BME280;27908;42.708;23.278;2022-12-18T00:20:30;63245.03;;;5.73;100.00
21879;BME280;27908;42.708;23.278;2022-12-18T00:22:56;63204.44;;;5.63;100.00
21879;BME280;27908;42.708;23.278;2022-12-18T00:25:22;63252.00;;;5.67;100.00
21879;BME280;27908;42.708;23.278;2022-12-18T00:27:47;63228.09;;;5.57;100.00
21879;BME280;27908;42.708;23.278;2022-12-18T00:30:13;63268.69;;;5.66;100.00
21879;BME280;27908;42.708;23.278;2022-12-18T00:32:39;63227.69;;;5.64;100.00
21879;BME280;27908;42.708;23.278;2022-12-18T00:35:06;63229.66;;;5.58;100.00
21879;BME280;27908;42.708;23.278;2022-12-18T00:37:33;63227.56;;;5.54;100.00
21879;BME280;27908;42.708;23.278;2022-12-18T00:39:59;63186.56;;;5.51;100.00
21879;BME280;27908;42.708;23.278;2022-12-18T00:42:24;63208.97;;;5.60;100.00
21879;BME280;27908;42.708;23.278;2022-12-18T00:45:08;63229.22;;;5.63;100.00
21879;BME280;27908;42.708;23.278;2022-12-18T00:47:34;63243.25;;;5.57;100.00
21879;BME280;27908;42.708;23.278;2022-12-18T00:49:59;63200.16;;;5.47;100.00
21879;BME280;27908;42.708;23.278;2022-12-18T00:52:24;63208.03;;;5.32;100.00
21879;BME280;27908;42.708;23.278;2022-12-18T00:54:50;63299.53;;;5.35;100.00
21879;BME280;27908;42.708;23.278;2022-12-18T00:57:15;63246.66;;;5.48;100.00
21879;BME280;27908;42.708;23.278;2022-12-18T00:59:40;63231.28;;;5.33;100.00
21879;BME280;27908;42.708;23.278;2022-12-18T01:02:06;63210.06;;;5.34;100.00
21879;BME280;27908;42.708;23.278;2022-12-18T01:04:32;63194.88;;;5.32;100.00
21879;BME280;27908;42.708;23.278;2022-12-18T01:06:58;63222.72;;;5.34;100.00
21879;BME280;27908;42.708;23.278;2022-12-18T01:09:23;63171.97;;;5.20;100.00
21879;BME280;27908;42.708;23.278;2022-12-18T01:11:49;63179.59;;;5.22;100.00
21879;BME280;27908;42.708;23.278;2022-12-18T01:14:14;63184.47;;;5.12;100.00
21879;BME280;27908;42.708;23.278;2022-12-18T01:16:40;63206.72;;;5.14;100.00
21879;BME280;27908;42.708;23.278;2022-12-18T01:19:06;63138.44;;;5.07;100.00
21879;BME280;27908;42.708;23.278;2022-12-18T01:21:31;63188.88;;;5.02;100.00
21879;BME280;27908;42.708;23.278;2022-12-18T01:23:57;63152.50;;;5.01;100.00
21879;BME280;27908;42.708;23.278;2022-12-18T01:26:23;63167.06;;;4.95;100.00
21879;BME280;27908;42.708;23.278;2022-12-18T01:28:48;63178.59;;;4.92;100.00
21879;BME280;27908;42.708;23.278;2022-12-18T01:31:21;63180.16;;;4.94;100.00
21879;BME280;27908;42.708;23.278;2022-12-18T01:33:46;63147.66;;;4.82;100.00
21879;BME280;27908;42.708;23.278;2022-12-18T01:36:38;63142.25;;;4.91;100.00
21879;BME280;27908;42.708;23.278;2022-12-18T01:39:10;63167.41;;;4.86;100.00
21879;BME280;27908;42.708;23.278;2022-12-18T01:41:36;63136.66;;;4.88;100.00
21879;BME280;27908;42.708;23.278;2022-12-18T01:47:46;63138.59;;;4.83;100.00
21879;BME280;27908;42.708;23.278;2022-12-18T01:50:21;63160.31;;;4.84;100.00
21879;BME280;27908;42.708;23.278;2022-12-18T01:52:58;63135.53;;;4.82;100.00
21879;BME280;27908;42.708;23.278;2022-12-18T01:55:28;63135.03;;;4.82;100.00
21879;BME280;27908;42.708;23.278;2022-12-18T01:57:56;63127.56;;;4.87;100.00
21879;BME280;27908;42.708;23.278;2022-12-18T02:00:24;63151.22;;;4.83;100.00
21879;BME280;27908;42.708;23.278;2022-12-18T02:02:50;63162.28;;;4.81;100.00
21879;BME280;27908;42.708;23.278;2022-12-18T02:05:26;63161.34;;;4.85;100.00
21879;BME280;27908;42.708;23.278;2022-12-18T02:10:32;63123.75;;;4.68;100.00
21879;BME280;27908;42.708;23.278;2022-12-18T02:19:24;63177.88;;;4.77;100.00
21879;BME280;27908;42.708;23.278;2022-12-18T02:24:46;63138.00;;;4.77;100.00
21879;BME280;27908;42.708;23.278;2022-12-18T02:27:13;63167.72;;;4.74;100.00
21879;BME280;27908;42.708;23.278;2022-12-18T02:29:44;63125.31;;;4.72;100.00
21879;BME280;27908;42.708;23.278;2022-12-18T02:32:16;63147.97;;;4.70;100.00
21879;BME280;27908;42.708;23.278;2022-12-18T02:34:43;63141.16;;;4.54;100.00
21879;BME280;27908;42.708;23.278;2022-12-18T02:37:12;63129.59;;;4.57;100.00
21879;BME280;27908;42.708;23.278;2022-12-18T02:39:42;63155.00;;;4.67;100.00
21879;BME280;27908;42.708;23.278;2022-12-18T02:42:09;63143.28;;;4.60;100.00
21879;BME280;27908;42.708;23.278;2022-12-18T02:44:41;63099.03;;;4.69;100.00
21879;BME280;27908;42.708;23.278;2022-12-18T02:47:12;63162.53;;;4.64;100.00
21879;BME280;27908;42.708;23.278;2022-12-18T02:58:18;63120.19;;;4.67;100.00
21879;BME280;27908;42.708;23.278;2022-12-18T03:00:56;63158.06;;;4.70;100.00
21879;BME280;27908;42.708;23.278;2022-12-18T03:03:42;63145.41;;;4.67;100.00
21879;BME280;27908;42.708;23.278;2022-12-18T03:06:18;63114.91;;;4.53;100.00
21879;BME280;27908;42.708;23.278;2022-12-18T03:08:48;63128.50;;;4.51;100.00
21879;BME280;27908;42.708;23.278;2022-12-18T03:11:16;63077.56;;;4.51;100.00
21879;BME280;27908;42.708;23.278;2022-12-18T03:14:03;63114.97;;;4.58;100.00
21879;BME280;27908;42.708;23.278;2022-12-18T03:16:34;63133.16;;;4.58;100.00
21879;BME280;27908;42.708;23.278;2022-12-18T03:19:20;63138.63;;;4.54;100.00
21879;BME280;27908;42.708;23.278;2022-12-18T03:21:49;63142.63;;;4.50;100.00
21879;BME280;27908;42.708;23.278;2022-12-18T03:24:18;63121.44;;;4.52;100.00
21879;BME280;27908;42.708;23.278;2022-12-18T03:26:47;63142.72;;;4.58;100.00
21879;BME280;27908;42.708;23.278;2022-12-18T03:29:34;63105.31;;;4.51;100.00
21879;BME280;27908;42.708;23.278;2022-12-18T03:32:18;63101.66;;;4.45;100.00
21879;BME280;27908;42.708;23.278;2022-12-18T03:34:48;63109.28;;;4.47;100.00
21879;BME280;27908;42.708;23.278;2022-12-18T03:37:15;63122.88;;;4.46;100.00
21879;BME280;27908;42.708;23.278;2022-12-18T03:39:40;63101.66;;;4.45;100.00
21879;BME280;27908;42.708;23.278;2022-12-18T03:47:28;63147.63;;;4.48;100.00
21879;BME280;27908;42.708;23.278;2022-12-18T03:52:38;63104.56;;;4.38;100.00
21879;BME280;27908;42.708;23.278;2022-12-18T03:55:07;63106.53;;;4.32;100.00
21879;BME280;27908;42.708;23.278;2022-12-18T03:57:33;63100.53;;;4.36;100.00
21879;BME280;27908;42.708;23.278;2022-12-18T04:00:12;63076.34;;;4.37;100.00
21879;BME280;27908;42.708;23.278;2022-12-18T04:02:42;63117.19;;;4.38;100.00
21879;BME280;27908;42.708;23.278;2022-12-18T04:05:09;63070.84;;;4.42;100.00
21879;BME280;27908;42.708;23.278;2022-12-18T04:07:36;63091.06;;;4.44;100.00
21879;BME280;27908;42.708;23.278;2022-12-18T04:10:06;63101.59;;;4.08;100.00
21879;BME280;27908;42.708;23.278;2022-12-18T04:12:31;63109.06;;;4.35;100.00
21879;BME280;27908;42.708;23.278;2022-12-18T04:14:57;63084.31;;;4.30;100.00
21879;BME280;27908;42.708;23.278;2022-12-18T04:17:22;63136.03;;;4.20;100.00
21879;BME280;27908;42.708;23.278;2022-12-18T04:19:49;63100.34;;;4.24;100.00
21879;BME280;27908;42.708;23.278;2022-12-18T04:22:15;63074.09;;;4.23;100.00
21879;BME280;27908;42.708;23.278;2022-12-18T04:24:40;63101.34;;;4.25;100.00
21879;BME280;27908;42.708;23.278;2022-12-18T04:27:06;63072.13;;;4.26;100.00
21879;BME280;27908;42.708;23.278;2022-12-18T04:29:31;63112.06;;;4.33;100.00
21879;BME280;27908;42.708;23.278;2022-12-18T04:31:57;63089.88;;;4.33;100.00
21879;BME280;27908;42.708;23.278;2022-12-18T04:34:22;63091.91;;;4.33;100.00
21879;BME280;27908;42.708;23.278;2022-12-18T04:36:47;63074.59;;;4.23;100.00
21879;BME280;27908;42.708;23.278;2022-12-18T04:39:13;63074.94;;;4.12;100.00
21879;BME280;27908;42.708;23.278;2022-12-18T04:41:39;63074.94;;;4.12;100.00
21879;BME280;27908;42.708;23.278;2022-12-18T04:44:04;63073.31;;;4.05;100.00
21879;BME280;27908;42.708;23.278;2022-12-18T04:46:30;63077.88;;;4.07;100.00
21879;BME280;27908;42.708;23.278;2022-12-18T04:48:55;63066.09;;;3.96;100.00
21879;BME280;27908;42.708;23.278;2022-12-18T04:51:21;63073.69;;;3.98;100.00
21879;BME280;27908;42.708;23.278;2022-12-18T04:53:46;63027.78;;;3.95;100.00
21879;BME280;27908;42.708;23.278;2022-12-18T04:56:14;63040.28;;;3.88;100.00
21879;BME280;27908;42.708;23.278;2022-12-18T04:58:41;63065.53;;;3.93;100.00
21879;BME280;27908;42.708;23.278;2022-12-18T05:01:07;63045.81;;;3.88;100.00
21879;BME280;27908;42.708;23.278;2022-12-18T05:03:33;63020.81;;;3.69;100.00
21879;BME280;27908;42.708;23.278;2022-12-18T05:06:00;63054.72;;;3.78;100.00
21879;BME280;27908;42.708;23.278;2022-12-18T05:08:25;63033.19;;;3.86;100.00
21879;BME280;27908;42.708;23.278;2022-12-18T05:11:00;63045.75;;;3.84;100.00
21879;BME280;27908;42.708;23.278;2022-12-18T05:13:26;62992.56;;;3.66;100.00
21879;BME280;27908;42.708;23.278;2022-12-18T05:15:52;63055.16;;;3.73;100.00
21879;BME280;27908;42.708;23.278;2022-12-18T05:18:18;63039.25;;;3.87;100.00
21879;BME280;27908;42.708;23.278;2022-12-18T05:20:44;63038.66;;;3.82;100.00
21879;BME280;27908;42.708;23.278;2022-12-18T05:23:09;63020.91;;;3.74;100.00
21879;BME280;27908;42.708;23.278;2022-12-18T05:25:34;63004.34;;;3.78;100.00
21879;BME280;27908;42.708;23.278;2022-12-18T05:28:00;63026.56;;;3.82;100.00
21879;BME280;27908;42.708;23.278;2022-12-18T05:30:25;62990.81;;;3.84;100.00
21879;BME280;27908;42.708;23.278;2022-12-18T05:32:51;63065.44;;;3.86;100.00
21879;BME280;27908;42.708;23.278;2022-12-18T05:35:16;63013.91;;;3.77;100.00
21879;BME280;27908;42.708;23.278;2022-12-18T05:37:42;63046.25;;;3.84;100.00
21879;BME280;27908;42.708;23.278;2022-12-18T05:40:07;63035.63;;;3.81;100.00
21879;BME280;27908;42.708;23.278;2022-12-18T05:42:33;62999.03;;;3.63;100.00
21879;BME280;27908;42.708;23.278;2022-12-18T05:44:58;63046.00;;;3.69;100.00
21879;BME280;27908;42.708;23.278;2022-12-18T05:47:24;63045.44;;;3.66;100.00
21879;BME280;27908;42.708;23.278;2022-12-18T05:49:49;63023.41;;;3.74;100.00
21879;BME280;27908;42.708;23.278;2022-12-18T05:52:15;63043.53;;;3.72;100.00
21879;BME280;27908;42.708;23.278;2022-12-18T05:54:40;63010.28;;;3.71;100.00
21879;BME280;27908;42.708;23.278;2022-12-18T05:57:06;62979.06;;;3.41;100.00
21879;BME280;27908;42.708;23.278;2022-12-18T05:59:31;63024.31;;;3.68;100.00
21879;BME280;27908;42.708;23.278;2022-12-18T06:01:56;63036.78;;;3.60;100.00
21879;BME280;27908;42.708;23.278;2022-12-18T06:04:22;63041.09;;;3.77;100.00
21879;BME280;27908;42.708;23.278;2022-12-18T06:06:48;63047.59;;;3.73;100.00
21879;BME280;27908;42.708;23.278;2022-12-18T06:09:13;63052.56;;;3.71;100.00
21879;BME280;27908;42.708;23.278;2022-12-18T06:11:39;63056.13;;;3.72;100.00
21879;BME280;27908;42.708;23.278;2022-12-18T06:14:05;62996.38;;;3.53;100.00
21879;BME280;27908;42.708;23.278;2022-12-18T06:16:31;63029.22;;;3.60;100.00
21879;BME280;27908;42.708;23.278;2022-12-18T06:18:58;63066.28;;;3.77;100.00
21879;BME280;27908;42.708;23.278;2022-12-18T06:21:24;62991.94;;;3.58;100.00
21879;BME280;27908;42.708;23.278;2022-12-18T06:23:50;62989.44;;;3.61;100.00
21879;BME280;27908;42.708;23.278;2022-12-18T06:26:15;63032.94;;;3.71;100.00
21879;BME280;27908;42.708;23.278;2022-12-18T06:28:41;62994.75;;;3.78;100.00
21879;BME280;27908;42.708;23.278;2022-12-18T06:31:07;63029.59;;;3.83;100.00
21879;BME280;27908;42.708;23.278;2022-12-18T06:33:33;63026.72;;;3.92;100.00
21879;BME280;27908;42.708;23.278;2022-12-18T06:36:05;63061.41;;;3.87;100.00
21879;BME280;27908;42.708;23.278;2022-12-18T06:38:32;63025.03;;;3.81;100.00
21879;BME280;27908;42.708;23.278;2022-12-18T06:40:58;63069.78;;;3.75;100.00
21879;BME280;27908;42.708;23.278;2022-12-18T06:43:24;63049.13;;;3.75;100.00
21879;BME280;27908;42.708;23.278;2022-12-18T06:45:49;63041.22;;;3.84;100.00
21879;BME280;27908;42.708;23.278;2022-12-18T06:48:19;63037.91;;;3.66;100.00
21879;BME280;27908;42.708;23.278;2022-12-18T06:50:45;63069.91;;;3.83;100.00
21879;BME280;27908;42.708;23.278;2022-12-18T06:53:10;63039.25;;;3.87;100.00
21879;BME280;27908;42.708;23.278;2022-12-18T06:55:36;63033.56;;;3.79;100.00
21879;BME280;27908;42.708;23.278;2022-12-18T06:58:01;63000.31;;;3.79;100.00
21879;BME280;27908;42.708;23.278;2022-12-18T07:00:27;63050.13;;;3.73;100.00
21879;BME280;27908;42.708;23.278;2022-12-18T07:02:52;63030.47;;;3.74;100.00
21879;BME280;27908;42.708;23.278;2022-12-18T07:05:17;63046.56;;;3.72;100.00
21879;BME280;27908;42.708;23.278;2022-12-18T07:07:43;63055.91;;;3.59;100.00
21879;BME280;27908;42.708;23.278;2022-12-18T07:10:09;63038.38;;;3.64;100.00
21879;BME280;27908;42.708;23.278;2022-12-18T07:12:34;63035.75;;;3.57;100.00
21879;BME280;27908;42.708;23.278;2022-12-18T07:15:00;62998.47;;;3.57;100.00
21879;BME280;27908;42.708;23.278;2022-12-18T07:17:25;63036.03;;;3.45;100.00
21879;BME280;27908;42.708;23.278;2022-12-18T07:19:50;62986.16;;;3.43;100.00
21879;BME280;27908;42.708;23.278;2022-12-18T07:22:16;62973.91;;;3.34;100.00
21879;BME280;27908;42.708;23.278;2022-12-18T07:24:41;62996.09;;;3.36;100.00
21879;BME280;27908;42.708;23.278;2022-12-18T07:27:07;62985.59;;;3.40;100.00
21879;BME280;27908;42.708;23.278;2022-12-18T07:29:32;63020.34;;;3.40;100.00
21879;BME280;27908;42.708;23.278;2022-12-18T07:31:57;63006.16;;;3.36;100.00
21879;BME280;27908;42.708;23.278;2022-12-18T07:34:23;62995.09;;;3.35;100.00
21879;BME280;27908;42.708;23.278;2022-12-18T07:36:48;62978.34;;;3.28;100.00
21879;BME280;27908;42.708;23.278;2022-12-18T07:39:13;63007.78;;;3.42;100.00
21879;BME280;27908;42.708;23.278;2022-12-18T07:41:39;63018.78;;;3.38;100.00
21879;BME280;27908;42.708;23.278;2022-12-18T07:44:11;62974.94;;;3.35;100.00
21879;BME280;27908;42.708;23.278;2022-12-18T07:46:36;63014.88;;;3.44;100.00
21879;BME280;27908;42.708;23.278;2022-12-18T07:49:02;62976.13;;;3.46;100.00
21879;BME280;27908;42.708;23.278;2022-12-18T07:51:27;63031.19;;;3.28;100.00
21879;BME280;27908;42.708;23.278;2022-12-18T07:53:52;62976.59;;;3.44;100.00
21879;BME280;27908;42.708;23.278;2022-12-18T07:56:18;62993.63;;;3.38;100.00
21879;BME280;27908;42.708;23.278;2022-12-18T07:58:44;63035.66;;;3.52;100.00
21879;BME280;27908;42.708;23.278;2022-12-18T08:01:11;62989.31;;;3.51;100.00
21879;BME280;27908;42.708;23.278;2022-12-18T08:03:39;63011.50;;;3.53;100.00
21879;BME280;27908;42.708;23.278;2022-12-18T08:06:06;63040.22;;;3.54;100.00
21879;BME280;27908;42.708;23.278;2022-12-18T08:08:33;63016.22;;;3.36;100.00
21879;BME280;27908;42.708;23.278;2022-12-18T08:10:59;63012.44;;;3.49;100.00
21879;BME280;27908;42.708;23.278;2022-12-18T08:13:25;62986.72;;;3.49;100.00
21879;BME280;27908;42.708;23.278;2022-12-18T08:16:06;63010.50;;;3.54;100.00
21879;BME280;27908;42.708;23.278;2022-12-18T08:18:33;63020.97;;;3.48;100.00
21879;BME280;27908;42.708;23.278;2022-12-18T08:21:10;62975.34;;;3.59;100.00
21879;BME280;27908;42.708;23.278;2022-12-18T08:23:35;63019.66;;;3.61;100.00
21879;BME280;27908;42.708;23.278;2022-12-18T08:26:01;62981.94;;;3.63;100.00
21879;BME280;27908;42.708;23.278;2022-12-18T08:28:26;63016.47;;;3.51;100.00
21879;BME280;27908;42.708;23.278;2022-12-18T08:30:52;63031.59;;;3.51;100.00
21879;BME280;27908;42.708;23.278;2022-12-18T08:33:17;63010.22;;;3.69;100.00
21879;BME280;27908;42.708;23.278;2022-12-18T08:35:43;63050.63;;;3.74;100.00
21879;BME280;27908;42.708;23.278;2022-12-18T08:38:08;63046.72;;;3.82;100.00
21879;BME280;27908;42.708;23.278;2022-12-18T08:40:33;63013.50;;;3.84;100.00
21879;BME280;27908;42.708;23.278;2022-12-18T08:42:59;63033.53;;;3.77;100.00
21879;BME280;27908;42.708;23.278;2022-12-18T08:45:43;63043.09;;;3.76;100.00
21879;BME280;27908;42.708;23.278;2022-12-18T08:48:09;63015.38;;;3.76;100.00
21879;BME280;27908;42.708;23.278;2022-12-18T08:50:35;63061.75;;;3.77;100.00
21879;BME280;27908;42.708;23.278;2022-12-18T08:53:01;63028.28;;;3.64;100.00
21879;BME280;27908;42.708;23.278;2022-12-18T08:55:26;63023.38;;;3.72;100.00
21879;BME280;27908;42.708;23.278;2022-12-18T08:57:52;63044.06;;;3.75;100.00
21879;BME280;27908;42.708;23.278;2022-12-18T09:00:17;63047.66;;;3.78;100.00
21879;BME280;27908;42.708;23.278;2022-12-18T09:02:43;63015.91;;;3.77;100.00
21879;BME280;27908;42.708;23.278;2022-12-18T09:05:08;63052.28;;;3.83;100.00
21879;BME280;27908;42.708;23.278;2022-12-18T09:07:34;63000.50;;;3.91;100.00
21879;BME280;27908;42.708;23.278;2022-12-18T09:09:59;63074.25;;;4.01;100.00
21879;BME280;27908;42.708;23.278;2022-12-18T09:12:25;63049.47;;;3.97;100.00
21879;BME280;27908;42.708;23.278;2022-12-18T09:14:50;63034.06;;;4.11;100.00
21879;BME280;27908;42.708;23.278;2022-12-18T09:17:16;63097.06;;;4.09;100.00
21879;BME280;27908;42.708;23.278;2022-12-18T09:19:41;63074.25;;;4.01;100.00
21879;BME280;27908;42.708;23.278;2022-12-18T09:22:06;63081.25;;;3.98;100.00
21879;BME280;27908;42.708;23.278;2022-12-18T09:24:32;63089.88;;;4.02;100.00
21879;BME280;27908;42.708;23.278;2022-12-18T09:26:57;63047.59;;;4.05;100.00
21879;BME280;27908;42.708;23.278;2022-12-18T09:29:23;63036.13;;;4.13;100.00
21879;BME280;27908;42.708;23.278;2022-12-18T09:31:48;63066.78;;;4.06;100.00
21879;BME280;27908;42.708;23.278;2022-12-18T09:34:15;63094.75;;;4.23;100.00
21879;BME280;27908;42.708;23.278;2022-12-18T09:36:40;63081.63;;;4.21;100.00
21879;BME280;27908;42.708;23.278;2022-12-18T09:39:06;63099.09;;;4.11;100.00
21879;BME280;27908;42.708;23.278;2022-12-18T09:44:32;63063.66;;;4.32;100.00
21879;BME280;27908;42.708;23.278;2022-12-18T09:47:27;63119.50;;;4.25;100.00
21879;BME280;27908;42.708;23.278;2022-12-18T09:50:13;63043.34;;;4.23;99.37
21879;BME280;27908;42.708;23.278;2022-12-18T09:52:45;63120.19;;;4.36;100.00
21879;BME280;27908;42.708;23.278;2022-12-18T09:55:30;63097.47;;;4.36;98.26
21879;BME280;27908;42.708;23.278;2022-12-18T09:58:19;63075.69;;;4.29;98.57
21879;BME280;27908;42.708;23.278;2022-12-18T10:00:48;63091.50;;;4.40;97.49
21879;BME280;27908;42.708;23.278;2022-12-18T10:03:16;63147.13;;;4.50;98.06
21879;BME280;27908;42.708;23.278;2022-12-18T10:08:37;63138.34;;;4.68;96.88
21879;BME280;27908;42.708;23.278;2022-12-18T10:17:02;63125.97;;;4.51;98.85
21879;BME280;27908;42.708;23.278;2022-12-18T10:19:39;63123.84;;;4.76;97.92
21879;BME280;27908;42.708;23.278;2022-12-18T10:27:29;63165.66;;;4.72;96.56
21879;BME280;27908;42.708;23.278;2022-12-18T10:29:55;63159.56;;;4.69;95.93
21879;BME280;27908;42.708;23.278;2022-12-18T10:32:26;63117.03;;;4.59;96.73
21879;BME280;27908;42.708;23.278;2022-12-18T10:34:54;63164.88;;;4.86;96.28
21879;BME280;27908;42.708;23.278;2022-12-18T10:37:26;63169.09;;;4.97;97.39
21879;BME280;27908;42.708;23.278;2022-12-18T10:40:14;63158.63;;;5.07;95.94
21879;BME280;27908;42.708;23.278;2022-12-18T10:42:40;63208.97;;;5.29;94.45
21879;BME280;27908;42.708;23.278;2022-12-18T10:45:15;63185.16;;;5.23;93.02
21879;BME280;27908;42.708;23.278;2022-12-18T10:47:43;63153.81;;;5.22;93.69
21879;BME280;27908;42.708;23.278;2022-12-18T10:50:20;63187.59;;;5.18;93.67
21879;BME280;27908;42.708;23.278;2022-12-18T10:53:03;63170.88;;;5.14;92.20
21879;BME280;27908;42.708;23.278;2022-12-18T10:55:35;63199.63;;;5.12;93.79
21879;BME280;27908;42.708;23.278;2022-12-18T11:03:44;63243.38;;;5.32;88.88
21879;BME280;27908;42.708;23.278;2022-12-18T11:06:16;63195.69;;;5.18;90.25
21879;BME280;27908;42.708;23.278;2022-12-18T11:08:43;63216.56;;;5.29;90.43
21879;BME280;27908;42.708;23.278;2022-12-18T11:11:20;63203.41;;;5.28;89.29
21879;BME280;27908;42.708;23.278;2022-12-18T11:14:11;63193.56;;;5.11;91.82
21879;BME280;27908;42.708;23.278;2022-12-18T11:16:44;63186.94;;;5.07;90.83
21879;BME280;27908;42.708;23.278;2022-12-18T11:19:23;63194.63;;;5.15;92.16
21879;BME280;27908;42.708;23.278;2022-12-18T11:21:51;63202.97;;;5.32;92.61
21879;BME280;27908;42.708;23.278;2022-12-18T11:24:32;63180.88;;;5.09;92.19
21879;BME280;27908;42.708;23.278;2022-12-18T11:27:04;63184.41;;;5.07;92.32
21879;BME280;27908;42.708;23.278;2022-12-18T11:29:38;63165.16;;;5.03;91.58
21879;BME280;27908;42.708;23.278;2022-12-18T11:34:52;63170.31;;;5.11;93.67
21879;BME280;27908;42.708;23.278;2022-12-18T11:37:22;63192.63;;;5.15;93.00
21879;BME280;27908;42.708;23.278;2022-12-18T11:40:03;63217.78;;;5.10;90.67
21879;BME280;27908;42.708;23.278;2022-12-18T11:45:00;63185.03;;;5.15;88.70
21879;BME280;27908;42.708;23.278;2022-12-18T11:47:50;63197.66;;;5.15;89.53
21879;BME280;27908;42.708;23.278;2022-12-18T11:50:20;63175.22;;;5.01;89.60
21879;BME280;27908;42.708;23.278;2022-12-18T11:52:48;63204.13;;;5.09;91.20
21879;BME280;27908;42.708;23.278;2022-12-18T11:55:32;63191.13;;;5.19;91.26
21879;BME280;27908;42.708;23.278;2022-12-18T11:58:11;63177.81;;;5.06;92.86
21879;BME280;27908;42.708;23.278;2022-12-18T12:00:47;63185.00;;;5.13;93.14
21879;BME280;27908;42.708;23.278;2022-12-18T12:11:12;63178.28;;;5.04;91.29
21879;BME280;27908;42.708;23.278;2022-12-18T12:16:59;63196.09;;;5.11;93.38
21879;BME280;27908;42.708;23.278;2022-12-18T12:19:36;63175.41;;;5.13;90.68
21879;BME280;27908;42.708;23.278;2022-12-18T12:31:07;63172.97;;;5.18;91.14
21879;BME280;27908;42.708;23.278;2022-12-18T12:33:41;63179.03;;;5.19;92.06
21879;BME280;27908;42.708;23.278;2022-12-18T12:36:23;63242.22;;;5.22;91.74
21879;BME280;27908;42.708;23.278;2022-12-18T12:38:57;63185.63;;;5.21;95.03
21879;BME280;27908;42.708;23.278;2022-12-18T12:41:30;63187.47;;;5.10;92.49
21879;BME280;27908;42.708;23.278;2022-12-18T12:44:20;63176.38;;;5.09;92.96
21879;BME280;27908;42.708;23.278;2022-12-18T12:46:48;63169.84;;;5.13;92.30
21879;BME280;27908;42.708;23.278;2022-12-18T12:49:18;63181.03;;;5.19;92.07
21879;BME280;27908;42.708;23.278;2022-12-18T12:51:52;63192.91;;;5.01;94.11
21879;BME280;27908;42.708;23.278;2022-12-18T12:54:23;63181.22;;;4.97;93.02
21879;BME280;27908;42.708;23.278;2022-12-18T13:02:20;63145.97;;;4.70;93.75
21879;BME280;27908;42.708;23.278;2022-12-18T13:07:23;63104.59;;;4.72;95.01
21879;BME280;27908;42.708;23.278;2022-12-18T13:18:13;63133.78;;;4.66;95.42
21879;BME280;27908;42.708;23.278;2022-12-18T13:25:51;63118.13;;;4.65;95.47
21879;BME280;27908;42.708;23.278;2022-12-18T13:31:06;63124.88;;;4.77;94.06
21879;BME280;27908;42.708;23.278;2022-12-18T13:33:42;63186.84;;;4.71;94.77
21879;BME280;27908;42.708;23.278;2022-12-18T13:36:29;63169.78;;;4.76;94.51
21879;BME280;27908;42.708;23.278;2022-12-18T13:41:39;63131.34;;;4.71;96.12
21879;BME280;27908;42.708;23.278;2022-12-18T13:44:31;63121.78;;;4.74;95.06
21879;BME280;27908;42.708;23.278;2022-12-18T13:46:58;63164.53;;;4.64;95.29
21879;BME280;27908;42.708;23.278;2022-12-18T13:49:39;63156.31;;;4.85;96.43
21879;BME280;27908;42.708;23.278;2022-12-18T13:52:27;63167.22;;;4.74;94.63
21879;BME280;27908;42.708;23.278;2022-12-18T13:54:55;63150.03;;;4.72;92.36
21879;BME280;27908;42.708;23.278;2022-12-18T13:57:28;63164.69;;;4.74;93.03
21879;BME280;27908;42.708;23.278;2022-12-18T13:59:55;63165.25;;;4.77;94.18
21879;BME280;27908;42.708;23.278;2022-12-18T14:02:23;63143.97;;;4.71;91.78
21879;BME280;27908;42.708;23.278;2022-12-18T14:04:49;63156.13;;;4.75;91.94
21879;BME280;27908;42.708;23.278;2022-12-18T14:07:26;63160.69;;;4.75;90.97
21879;BME280;27908;42.708;23.278;2022-12-18T14:09:55;63149.59;;;4.76;91.12
21879;BME280;27908;42.708;23.278;2022-12-18T14:12:30;63145.69;;;4.85;91.71
21879;BME280;27908;42.708;23.278;2022-12-18T14:20:25;63138.94;;;4.73;89.92
21879;BME280;27908;42.708;23.278;2022-12-18T14:22:52;63131.41;;;4.76;91.02
21879;BME280;27908;42.708;23.278;2022-12-18T14:25:21;63155.91;;;4.60;89.62
21879;BME280;27908;42.708;23.278;2022-12-18T14:27:50;63122.91;;;4.48;90.35
21879;BME280;27908;42.708;23.278;2022-12-18T14:30:27;63108.84;;;4.52;90.76
21879;BME280;27908;42.708;23.278;2022-12-18T14:33:09;63119.66;;;4.64;88.91
21879;BME280;27908;42.708;23.278;2022-12-18T14:35:41;63125.78;;;4.70;88.08
21879;BME280;27908;42.708;23.278;2022-12-18T14:38:18;63144.44;;;4.69;86.86
21879;BME280;27908;42.708;23.278;2022-12-18T14:40:54;63101.31;;;4.54;86.87
21879;BME280;27908;42.708;23.278;2022-12-18T14:43:42;63134.06;;;4.52;86.55
21879;BME280;27908;42.708;23.278;2022-12-18T14:49:17;63102.28;;;4.50;86.50
21879;BME280;27908;42.708;23.278;2022-12-18T14:51:54;63068.66;;;4.30;86.21
21879;BME280;27908;42.708;23.278;2022-12-18T14:54:21;63097.97;;;4.34;84.86
21879;BME280;27908;42.708;23.278;2022-12-18T14:56:55;63057.06;;;4.31;84.89
21879;BME280;27908;42.708;23.278;2022-12-18T14:59:24;63079.81;;;4.33;85.85